Time;durP1;ratioP1;P1;durP2;ratioP2;P2;SDS_P1;SDS_P2;PMS_P1;PMS_P2;Temp;Humidity;BMP_temperature;BMP_pressure;BME280_temperature;BME280_humidity;BME280_pressure;Samples;Min_cycle;Max_cycle;Signal;HPM_P1;HPM_P2
2023/08/06 00:00:25;;;;;;;3.33;1.80;;;16.20;99.90;;;;;;5033934;28;20107;-80
2023/08/06 00:02:50;;;;;;;5.05;1.45;;;16.30;99.90;;;;;;5034604;28;20128;-82
2023/08/06 00:05:18;;;;;;;3.20;1.48;;;16.20;99.90;;;;;;5010986;28;20026;-81
2023/08/06 00:07:52;;;;;;;6.82;3.00;;;16.30;99.90;;;;;;4994806;28;20044;-81
2023/08/06 00:10:18;;;;;;;3.00;1.33;;;16.30;99.90;;;;;;5012086;28;20076;-81
2023/08/06 00:12:44;;;;;;;4.57;1.55;;;16.30;99.90;;;;;;5010967;28;20030;-80
2023/08/06 00:15:11;;;;;;;4.20;1.55;;;16.30;99.90;;;;;;5012306;28;20033;-81
2023/08/06 00:17:36;;;;;;;6.47;2.42;;;16.20;99.90;;;;;;5012111;28;20034;-81
2023/08/06 00:20:06;;;;;;;3.33;1.67;;;16.20;99.90;;;;;;5011981;28;20034;-81
2023/08/06 00:22:37;;;;;;;3.90;1.63;;;16.10;99.90;;;;;;4993543;28;20022;-81
2023/08/06 00:25:05;;;;;;;5.22;1.70;;;16.10;99.90;;;;;;4994302;28;20036;-81
2023/08/06 00:27:32;;;;;;;4.72;2.03;;;16.00;99.90;;;;;;4994030;28;20053;-81
2023/08/06 00:29:58;;;;;;;5.50;1.48;;;16.00;99.90;;;;;;4994094;28;20026;-81
2023/08/06 00:32:24;;;;;;;3.47;1.60;;;15.90;99.90;;;;;;4993412;28;20036;-81
2023/08/06 00:34:50;;;;;;;3.83;1.52;;;15.90;99.90;;;;;;5011383;28;20516;-82
2023/08/06 00:37:16;;;;;;;3.78;1.77;;;15.90;99.90;;;;;;4994461;28;20033;-82
2023/08/06 00:39:43;;;;;;;4.35;1.63;;;15.90;99.90;;;;;;4994774;28;20038;-81
2023/08/06 00:42:10;;;;;;;3.75;1.40;;;15.90;99.90;;;;;;5001907;28;20429;-81
2023/08/06 00:44:37;;;;;;;2.85;1.58;;;15.90;99.90;;;;;;5005706;28;20030;-82
2023/08/06 00:47:03;;;;;;;3.67;1.75;;;15.90;99.90;;;;;;5002531;28;20061;-81
2023/08/06 00:49:29;;;;;;;4.38;1.75;;;16.00;99.90;;;;;;5011931;28;20389;-81
2023/08/06 00:51:56;;;;;;;3.08;1.70;;;16.00;99.90;;;;;;4994054;28;20030;-81
2023/08/06 00:54:23;;;;;;;4.90;2.22;;;16.00;99.90;;;;;;4993486;28;20026;-82
2023/08/06 00:56:49;;;;;;;7.15;1.63;;;16.10;99.90;;;;;;4994180;28;20029;-83
2023/08/06 00:59:15;;;;;;;2.90;1.65;;;16.20;99.90;;;;;;4994200;28;20080;-81
2023/08/06 01:01:40;;;;;;;2.88;1.63;;;16.20;99.90;;;;;;4993512;28;20044;-81
2023/08/06 01:04:06;;;;;;;3.75;1.90;;;16.20;99.90;;;;;;5009898;28;20509;-81
2023/08/06 01:06:48;;;;;;;4.22;1.75;;;16.20;99.90;;;;;;5007404;28;20025;-81
2023/08/06 01:09:32;;;;;;;1.92;1.17;;;16.20;99.90;;;;;;5016132;28;20017;-82
2023/08/06 01:12:40;;;;;;;2.65;1.40;;;16.20;99.90;;;;;;5035208;28;20033;-81
2023/08/06 01:15:21;;;;;;;3.67;1.80;;;16.10;99.90;;;;;;5024607;28;20033;-81
2023/08/06 01:17:48;;;;;;;;;;;16.10;99.90;;;;;;4994619;28;20145;-80
2023/08/06 01:20:14;;;;;;;2.70;1.40;;;16.10;99.90;;;;;;4993789;28;19910;-83
2023/08/06 01:22:39;;;;;;;2.17;1.38;;;16.00;99.90;;;;;;5010599;28;20482;-76
2023/08/06 01:25:06;;;;;;;3.45;1.90;;;16.00;99.90;;;;;;5010921;28;20512;-76
2023/08/06 01:27:59;;;;;;;3.03;1.20;;;16.00;99.90;;;;;;5030409;28;20029;-76
2023/08/06 01:30:35;;;;;;;2.92;1.35;;;16.10;99.90;;;;;;5013425;28;20022;-76
2023/08/06 01:33:05;;;;;;;3.72;1.38;;;16.10;99.90;;;;;;5012639;28;20417;-76
2023/08/06 01:35:33;;;;;;;1.85;1.20;;;16.10;99.90;;;;;;5012840;28;20120;-76
2023/08/06 01:38:01;;;;;;;5.15;1.45;;;16.20;99.90;;;;;;5012756;28;20401;-77
2023/08/06 01:40:28;;;;;;;3.60;1.27;;;16.30;99.90;;;;;;5012186;28;20064;-76
2023/08/06 01:42:54;;;;;;;4.53;1.60;;;16.40;99.90;;;;;;5015685;28;20029;-77
2023/08/06 01:45:20;;;;;;;1.63;1.00;;;16.40;99.90;;;;;;5034496;28;20040;-77
2023/08/06 01:47:45;;;;;;;1.92;1.08;;;16.30;99.90;;;;;;5014671;28;20025;-77
2023/08/06 01:50:11;;;;;;;2.58;1.50;;;16.30;99.90;;;;;;5028142;28;20035;-76
2023/08/06 01:52:37;;;;;;;2.55;1.10;;;16.20;99.90;;;;;;5047870;28;20055;-76
2023/08/06 01:55:03;;;;;;;2.58;1.42;;;16.20;99.90;;;;;;5054198;28;20426;-77
2023/08/06 01:57:29;;;;;;;1.30;0.88;;;16.20;99.90;;;;;;5053769;28;20025;-76
2023/08/06 01:59:54;;;;;;;5.63;1.30;;;16.20;99.90;;;;;;5036253;28;20095;-76
2023/08/06 02:02:20;;;;;;;3.30;1.23;;;16.20;99.90;;;;;;5035562;28;20037;-76
2023/08/06 02:04:46;;;;;;;3.15;1.08;;;16.10;99.90;;;;;;5054034;28;20040;-76
2023/08/06 02:07:11;;;;;;;1.67;1.08;;;16.10;99.90;;;;;;5035928;28;20056;-75
2023/08/06 02:09:37;;;;;;;3.55;1.30;;;16.10;99.90;;;;;;5036077;28;20119;-76
2023/08/06 02:12:03;;;;;;;5.35;1.33;;;16.10;99.90;;;;;;5021851;28;20144;-77
2023/08/06 02:14:29;;;;;;;2.50;1.30;;;16.10;99.90;;;;;;5041447;28;20182;-77
2023/08/06 02:16:55;;;;;;;1.88;1.35;;;16.10;99.90;;;;;;5032844;28;20791;-76
2023/08/06 02:19:20;;;;;;;6.25;1.50;;;16.10;99.90;;;;;;5053554;28;20114;-75
2023/08/06 02:21:46;;;;;;;2.15;1.20;;;16.20;99.90;;;;;;5053394;28;20040;-75
2023/08/06 02:24:12;;;;;;;3.65;1.42;;;16.30;99.90;;;;;;5052714;28;20044;-75
2023/08/06 02:26:37;;;;;;;8.00;1.33;;;16.30;99.90;;;;;;5053544;28;20469;-75
2023/08/06 02:29:03;;;;;;;1.40;0.88;;;16.30;99.90;;;;;;5035602;28;20025;-75
2023/08/06 02:31:29;;;;;;;2.13;0.80;;;16.30;99.90;;;;;;5035436;28;20025;-75
2023/08/06 02:33:55;;;;;;;1.80;1.35;;;16.40;99.90;;;;;;5052430;28;20082;-75
2023/08/06 02:36:20;;;;;;;4.22;1.02;;;16.50;99.90;;;;;;5053509;28;20358;-75
2023/08/06 02:38:46;;;;;;;1.92;0.90;;;16.50;99.90;;;;;;5053194;28;20547;-75
2023/08/06 02:41:12;;;;;;;7.80;1.55;;;16.60;99.90;;;;;;5053267;28;20545;-75
2023/08/06 02:43:38;;;;;;;1.35;0.85;;;16.50;99.90;;;;;;5034904;28;20127;-75
2023/08/06 02:46:04;;;;;;;1.58;0.70;;;16.50;99.90;;;;;;5052885;28;20040;-75
2023/08/06 02:48:29;;;;;;;1.63;1.23;;;16.40;99.90;;;;;;5053199;28;20469;-75
2023/08/06 02:50:59;;;;;;;4.25;0.90;;;16.40;99.90;;;;;;5051883;28;20036;-75
2023/08/06 02:53:25;;;;;;;0.88;0.60;;;16.20;99.90;;;;;;5051400;28;20040;-76
2023/08/06 02:55:51;;;;;;;3.67;1.00;;;16.30;99.90;;;;;;5035085;28;20116;-76
2023/08/06 02:58:21;;;;;;;2.17;1.30;;;16.30;99.90;;;;;;5052597;28;20163;-76
2023/08/06 03:01:06;;;;;;;1.40;0.85;;;16.20;99.90;;;;;;5035906;28;20032;-76
2023/08/06 03:03:33;;;;;;;2.80;0.82;;;16.20;99.90;;;;;;5034933;28;20029;-76
2023/08/06 03:05:59;;;;;;;1.35;0.90;;;16.20;99.90;;;;;;5052565;28;20051;-76
2023/08/06 03:08:25;;;;;;;4.07;1.25;;;16.20;99.90;;;;;;5034645;28;20159;-76
2023/08/06 03:10:52;;;;;;;2.20;0.95;;;16.10;99.90;;;;;;5034888;28;20025;-76
2023/08/06 03:13:18;;;;;;;1.90;0.90;;;16.10;99.90;;;;;;5051567;28;20409;-76
2023/08/06 03:15:52;;;;;;;1.83;0.82;;;16.20;99.90;;;;;;5016463;28;20121;-76
2023/08/06 03:18:18;;;;;;;1.15;0.68;;;16.20;99.90;;;;;;5011292;28;20040;-76
2023/08/06 03:20:45;;;;;;;2.92;0.82;;;16.10;99.90;;;;;;5012796;28;20030;-76
2023/08/06 03:23:10;;;;;;;8.55;2.35;;;16.10;99.90;;;;;;5010496;28;20382;-76
2023/08/06 03:25:36;;;;;;;2.33;0.82;;;16.10;99.90;;;;;;5012551;28;20029;-76
2023/08/06 03:28:02;;;;;;;2.72;1.10;;;16.00;99.90;;;;;;5012581;28;20034;-75
2023/08/06 03:30:28;;;;;;;10.38;1.20;;;16.00;99.90;;;;;;5011142;28;20030;-76
2023/08/06 03:32:54;;;;;;;1.67;0.85;;;16.00;99.90;;;;;;5010216;28;20051;-76
2023/08/06 03:35:20;;;;;;;0.82;0.60;;;16.00;99.90;;;;;;5012391;28;20026;-76
2023/08/06 03:37:46;;;;;;;2.15;0.98;;;16.00;99.90;;;;;;5012264;28;20445;-75
2023/08/06 03:40:12;;;;;;;1.73;1.00;;;15.90;99.90;;;;;;5012373;28;20053;-75
2023/08/06 03:42:38;;;;;;;3.25;1.05;;;15.90;99.90;;;;;;4994066;28;20556;-75
2023/08/06 03:45:04;;;;;;;1.40;0.70;;;15.80;99.90;;;;;;5012186;28;20033;-75
2023/08/06 03:47:30;;;;;;;3.78;0.85;;;15.90;99.90;;;;;;5011260;28;20025;-75
2023/08/06 03:49:56;;;;;;;1.25;0.70;;;15.90;99.90;;;;;;5012138;28;20117;-75
2023/08/06 03:52:22;;;;;;;3.00;0.75;;;16.00;99.90;;;;;;5010157;28;20109;-76
2023/08/06 03:54:47;;;;;;;3.40;0.98;;;16.00;99.90;;;;;;5011760;28;20478;-76
2023/08/06 03:57:13;;;;;;;5.63;1.02;;;16.00;99.90;;;;;;5010850;28;20022;-75
2023/08/06 03:59:39;;;;;;;1.88;0.50;;;15.80;99.90;;;;;;5011103;28;20034;-75
2023/08/06 04:02:05;;;;;;;0.88;0.52;;;15.80;99.90;;;;;;5010466;28;20819;-75
2023/08/06 04:04:30;;;;;;;2.28;0.88;;;15.80;99.90;;;;;;5008994;28;20394;-75
2023/08/06 04:06:56;;;;;;;0.32;0.30;;;15.70;99.90;;;;;;5012049;28;20117;-75
2023/08/06 04:09:22;;;;;;;2.75;0.98;;;15.90;99.90;;;;;;5010479;28;20029;-75
2023/08/06 04:11:47;;;;;;;6.10;0.85;;;15.90;99.90;;;;;;5010665;28;20528;-76
2023/08/06 04:14:13;;;;;;;2.85;0.50;;;15.90;99.90;;;;;;4993434;28;20033;-76
2023/08/06 04:16:39;;;;;;;2.03;1.25;;;15.90;99.90;;;;;;4994251;28;20385;-76
2023/08/06 04:19:05;;;;;;;2.22;1.20;;;15.90;99.90;;;;;;5011506;28;20036;-75
2023/08/06 04:21:30;;;;;;;2.08;0.80;;;16.00;99.90;;;;;;5011698;28;20030;-75
2023/08/06 04:23:56;;;;;;;0.88;0.55;;;16.00;99.90;;;;;;5011017;28;20034;-76
2023/08/06 04:26:22;;;;;;;1.10;0.63;;;16.00;99.90;;;;;;5011617;28;20030;-75
2023/08/06 04:28:48;;;;;;;2.92;0.93;;;15.90;99.90;;;;;;4993969;28;20386;-76
2023/08/06 04:31:15;;;;;;;1.58;0.77;;;15.80;99.90;;;;;;4993891;28;20422;-77
2023/08/06 04:33:40;;;;;;;2.08;0.85;;;15.80;99.90;;;;;;5010658;28;20100;-76
2023/08/06 04:36:07;;;;;;;0.73;0.47;;;15.80;99.90;;;;;;5016044;28;20153;-76
2023/08/06 04:38:32;;;;;;;3.85;0.85;;;15.70;99.90;;;;;;5003515;28;20052;-76
2023/08/06 04:40:58;;;;;;;1.30;0.70;;;15.70;99.90;;;;;;5042884;28;20087;-76
2023/08/06 04:43:24;;;;;;;0.63;0.38;;;15.70;99.90;;;;;;5032365;28;20078;-76
2023/08/06 04:45:53;;;;;;;4.53;1.58;;;15.70;99.90;;;;;;5032662;28;20029;-75
2023/08/06 04:48:19;;;;;;;0.63;0.45;;;15.70;99.90;;;;;;5050729;28;20028;-75
2023/08/06 04:50:46;;;;;;;0.82;0.52;;;15.70;99.90;;;;;;5050444;28;20040;-75
2023/08/06 04:53:13;;;;;;;0.73;0.40;;;15.70;99.90;;;;;;5032239;28;20025;-76
2023/08/06 04:55:39;;;;;;;0.70;0.22;;;15.60;99.90;;;;;;5050681;28;20127;-75
2023/08/06 04:58:05;;;;;;;1.95;0.57;;;15.60;99.90;;;;;;5050716;28;20124;-75
2023/08/06 05:00:31;;;;;;;0.75;0.35;;;15.60;99.90;;;;;;5032953;28;20538;-76
2023/08/06 05:02:57;;;;;;;1.52;0.43;;;15.60;99.90;;;;;;5049760;28;20119;-75
2023/08/06 05:05:23;;;;;;;0.30;0.20;;;15.60;99.90;;;;;;5032585;28;20025;-76
2023/08/06 05:07:50;;;;;;;2.00;0.30;;;15.60;99.90;;;;;;5050141;28;20783;-75
2023/08/06 05:10:16;;;;;;;1.88;0.35;;;15.60;99.90;;;;;;5032736;28;20108;-76
2023/08/06 05:12:42;;;;;;;1.83;0.32;;;15.60;99.90;;;;;;5049749;28;20100;-75
2023/08/06 05:15:08;;;;;;;0.35;0.20;;;15.60;99.90;;;;;;5021965;28;20624;-74
2023/08/06 05:17:34;;;;;;;1.33;0.50;;;15.50;99.90;;;;;;5023355;28;20378;-75
2023/08/06 05:20:00;;;;;;;10.10;3.50;;;15.40;99.90;;;;;;5031979;28;20119;-76
2023/08/06 05:22:26;;;;;;;0.55;0.30;;;15.30;99.90;;;;;;5031060;28;20060;-75
2023/08/06 05:24:51;;;;;;;0.47;0.30;;;15.20;99.90;;;;;;5032114;28;20080;-76
2023/08/06 05:27:18;;;;;;;0.85;0.30;;;15.10;99.90;;;;;;5014523;28;20036;-76
2023/08/06 05:29:45;;;;;;;0.50;0.35;;;15.10;99.90;;;;;;5031917;28;20030;-75
2023/08/06 05:32:11;;;;;;;0.90;0.30;;;15.10;99.90;;;;;;5013961;28;20037;-75
2023/08/06 05:34:37;;;;;;;0.38;0.25;;;15.10;99.90;;;;;;5012962;28;20083;-75
2023/08/06 05:37:03;;;;;;;1.08;0.50;;;15.10;99.90;;;;;;5013588;28;20124;-76
2023/08/06 05:39:29;;;;;;;0.45;0.30;;;15.10;99.90;;;;;;5013919;28;20033;-75
2023/08/06 05:41:55;;;;;;;2.53;0.60;;;15.10;99.90;;;;;;5013894;28;20507;-75
2023/08/06 05:44:23;;;;;;;0.60;0.30;;;15.10;99.90;;;;;;5030693;28;20091;-74
2023/08/06 05:46:49;;;;;;;0.68;0.30;;;15.10;99.90;;;;;;5031698;28;20099;-75
2023/08/06 05:49:15;;;;;;;0.60;0.30;;;15.00;99.90;;;;;;5013779;28;20025;-75
2023/08/06 05:51:42;;;;;;;0.85;0.55;;;15.00;99.90;;;;;;5031382;28;20025;-76
2023/08/06 05:54:07;;;;;;;2.83;0.60;;;15.00;99.90;;;;;;5013522;28;20022;-76
2023/08/06 05:56:35;;;;;;;0.25;0.22;;;15.00;99.90;;;;;;5034010;28;20033;-76
2023/08/06 05:59:01;;;;;;;1.08;0.82;;;15.00;99.90;;;;;;5016271;28;20474;-75
2023/08/06 06:01:27;;;;;;;2.95;0.40;;;15.00;99.90;;;;;;5016776;28;20022;-75
2023/08/06 06:03:53;;;;;;;2.28;0.30;;;15.00;99.90;;;;;;5033266;28;20025;-75
2023/08/06 06:06:20;;;;;;;0.70;0.20;;;15.00;99.90;;;;;;5033681;28;20037;-75
2023/08/06 06:08:45;;;;;;;4.18;0.55;;;15.00;99.90;;;;;;5016302;28;20025;-74
2023/08/06 06:11:11;;;;;;;2.47;0.45;;;14.90;99.90;;;;;;5033710;28;20029;-75
2023/08/06 06:13:37;;;;;;;1.30;0.45;;;14.90;99.90;;;;;;5015346;28;20033;-74
2023/08/06 06:16:03;;;;;;;0.82;0.50;;;14.90;99.90;;;;;;5033850;28;20059;-75
2023/08/06 06:18:28;;;;;;;5.45;0.60;;;14.90;99.90;;;;;;5032597;28;20037;-75
2023/08/06 06:20:54;;;;;;;0.13;0.13;;;14.80;99.90;;;;;;5033497;28;20486;-76
2023/08/06 06:23:20;;;;;;;1.77;0.50;;;14.80;99.90;;;;;;5031393;28;20041;-76
2023/08/06 06:25:52;;;;;;;4.63;0.60;;;14.80;99.90;;;;;;5032523;28;20037;-77
2023/08/06 06:28:19;;;;;;;0.32;0.20;;;14.80;99.90;;;;;;5015218;28;20163;-76
2023/08/06 06:30:45;;;;;;;1.10;0.38;;;14.80;99.90;;;;;;5015810;28;20076;-77
2023/08/06 06:33:10;;;;;;;1.05;0.50;;;14.80;99.90;;;;;;5032706;28;20507;-77
2023/08/06 06:35:37;;;;;;;1.88;0.30;;;14.80;99.90;;;;;;5033097;28;20184;-77
2023/08/06 06:38:03;;;;;;;0.47;0.38;;;14.80;99.90;;;;;;5032985;28;20032;-77
2023/08/06 06:40:28;;;;;;;2.20;0.30;;;14.80;99.90;;;;;;5017676;28;20029;-77
2023/08/06 06:42:54;;;;;;;1.92;0.80;;;14.90;99.90;;;;;;5023076;28;20459;-72
2023/08/06 06:45:20;;;;;;;0.90;0.32;;;14.90;99.90;;;;;;5052815;28;20041;-66
2023/08/06 06:47:46;;;;;;;2.90;0.55;;;15.00;99.90;;;;;;5053126;28;20385;-67
2023/08/06 06:50:12;;;;;;;0.60;0.38;;;15.00;99.90;;;;;;5052851;28;20033;-66
2023/08/06 06:52:38;;;;;;;0.85;0.32;;;15.00;99.90;;;;;;5052213;28;20760;-66
2023/08/06 06:55:04;;;;;;;0.52;0.25;;;15.00;99.90;;;;;;5018138;28;20037;-67
2023/08/06 06:57:30;;;;;;;0.22;0.20;;;15.10;99.90;;;;;;5035066;28;20031;-68
2023/08/06 06:59:56;;;;;;;7.60;0.63;;;15.00;99.90;;;;;;5017801;28;20024;-66
2023/08/06 07:02:21;;;;;;;4.53;0.80;;;15.10;99.90;;;;;;5035249;28;20044;-68
2023/08/06 07:04:47;;;;;;;1.45;0.28;;;15.10;99.90;;;;;;5036346;28;20029;-65
2023/08/06 07:07:13;;;;;;;3.10;0.30;;;15.10;99.90;;;;;;5030887;28;20033;-66
2023/08/06 07:09:39;;;;;;;0.65;0.32;;;15.10;99.90;;;;;;5029470;28;20433;-66
2023/08/06 07:12:05;;;;;;;19.25;0.70;;;15.20;99.90;;;;;;5032460;28;20116;-66
2023/08/06 07:14:31;;;;;;;1.63;0.40;;;15.30;99.90;;;;;;5031612;28;20029;-66
2023/08/06 07:16:57;;;;;;;2.05;0.10;;;15.40;99.90;;;;;;5029637;28;20030;-68
2023/08/06 07:19:23;;;;;;;1.65;0.52;;;15.50;99.90;;;;;;5037612;28;20033;-67
2023/08/06 07:21:49;;;;;;;0.10;0.08;;;15.50;99.90;;;;;;5040262;28;20025;-67
2023/08/06 07:24:14;;;;;;;0.60;0.28;;;15.50;99.90;;;;;;5049660;28;20033;-67
2023/08/06 07:26:40;;;;;;;5.25;0.40;;;15.60;99.90;;;;;;5052187;28;20576;-66
2023/08/06 07:29:06;;;;;;;0.75;0.30;;;15.70;99.90;;;;;;5052146;28;20029;-66
2023/08/06 07:31:31;;;;;;;0.20;0.10;;;15.70;99.90;;;;;;5051620;28;20091;-67
2023/08/06 07:33:57;;;;;;;0.20;0.13;;;15.70;99.90;;;;;;5051193;28;20033;-66
2023/08/06 07:36:23;;;;;;;0.10;0.10;;;15.80;99.90;;;;;;5051786;28;20112;-65
2023/08/06 07:38:51;;;;;;;0.57;0.22;;;15.80;99.90;;;;;;5050520;28;20035;-66
2023/08/06 07:41:17;;;;;;;4.43;0.22;;;15.90;99.90;;;;;;5051788;28;20555;-65
2023/08/06 07:43:43;;;;;;;1.08;0.15;;;15.90;99.90;;;;;;5051287;28;20029;-66
2023/08/06 07:46:08;;;;;;;0.95;0.13;;;15.90;99.90;;;;;;5052061;28;20546;-66
2023/08/06 07:48:34;;;;;;;0.30;0.13;;;15.90;99.90;;;;;;5051668;28;20519;-66
2023/08/06 07:51:00;;;;;;;0.38;0.15;;;15.90;99.90;;;;;;5051688;28;20036;-66
2023/08/06 07:53:31;;;;;;;0.40;0.35;;;15.90;99.90;;;;;;5051109;28;20123;-67
2023/08/06 07:55:57;;;;;;;0.20;0.20;;;15.80;99.90;;;;;;5050208;28;20060;-67
2023/08/06 07:58:25;;;;;;;0.00;0.00;;;15.70;99.90;;;;;;5033627;28;20029;-67
2023/08/06 08:00:51;;;;;;;3.67;0.08;;;15.80;99.90;;;;;;5040817;28;20068;-67
2023/08/06 08:03:17;;;;;;;0.28;0.00;;;15.70;99.90;;;;;;5030683;28;20057;-68
2023/08/06 08:05:44;;;;;;;0.20;0.10;;;15.80;99.90;;;;;;5013805;28;20029;-67
2023/08/06 08:08:10;;;;;;;1.90;0.40;;;15.90;99.90;;;;;;5013527;28;20033;-67
2023/08/06 08:10:37;;;;;;;0.40;0.20;;;15.80;99.90;;;;;;5046664;28;20041;-67
2023/08/06 08:13:04;;;;;;;0.20;0.20;;;15.90;99.90;;;;;;5030561;28;20120;-66
2023/08/06 08:15:32;;;;;;;0.00;0.00;;;16.10;99.90;;;;;;5013526;28;20029;-67
2023/08/06 08:17:59;;;;;;;0.35;0.30;;;16.10;99.90;;;;;;5031274;28;20458;-66
2023/08/06 08:20:26;;;;;;;0.38;0.10;;;16.30;99.90;;;;;;5013762;28;20034;-66
2023/08/06 08:22:52;;;;;;;5.50;0.40;;;16.30;99.90;;;;;;5030593;28;20500;-67
2023/08/06 08:25:18;;;;;;;0.65;0.32;;;16.40;99.90;;;;;;5013759;28;20052;-67
2023/08/06 08:27:43;;;;;;;0.28;0.10;;;16.60;99.90;;;;;;5038639;28;20025;-66
2023/08/06 08:30:09;;;;;;;0.90;0.38;;;16.60;99.90;;;;;;5016091;28;20032;-66
2023/08/06 08:32:35;;;;;;;2.80;0.15;;;16.70;99.90;;;;;;5019670;28;20415;-66
2023/08/06 08:35:01;;;;;;;0.25;0.20;;;16.80;99.90;;;;;;5041900;28;20112;-67
2023/08/06 08:37:27;;;;;;;0.60;0.20;;;16.60;99.90;;;;;;5043798;28;20021;-67
2023/08/06 08:39:52;;;;;;;0.00;0.00;;;16.30;99.90;;;;;;5033127;28;20135;-67
2023/08/06 08:42:19;;;;;;;0.25;0.20;;;16.40;99.90;;;;;;5022916;28;20032;-67
2023/08/06 08:44:45;;;;;;;0.00;0.00;;;16.50;99.90;;;;;;5041417;28;20131;-66
2023/08/06 08:47:12;;;;;;;0.20;0.10;;;16.60;99.90;;;;;;5014108;28;20128;-67
2023/08/06 08:49:40;;;;;;;0.20;0.10;;;16.80;99.90;;;;;;5036549;28;20103;-66
2023/08/06 08:52:09;;;;;;;0.10;0.10;;;16.90;99.90;;;;;;5024738;28;20037;-67
2023/08/06 08:54:37;;;;;;;0.10;0.00;;;17.10;99.90;;;;;;5032131;28;20091;-67
2023/08/06 08:57:04;;;;;;;0.32;0.10;;;17.30;99.90;;;;;;5033004;28;20028;-67
2023/08/06 08:59:30;;;;;;;0.17;0.13;;;17.40;99.90;;;;;;5050706;28;20021;-67
2023/08/06 09:02:00;;;;;;;0.32;0.10;;;17.30;99.90;;;;;;5050731;28;20114;-68
2023/08/06 09:04:31;;;;;;;0.20;0.20;;;17.20;99.90;;;;;;5032718;28;20021;-67
2023/08/06 09:06:59;;;;;;;0.10;0.00;;;17.30;99.90;;;;;;5033353;28;20079;-66
2023/08/06 09:09:37;;;;;;;0.47;0.30;;;17.30;99.90;;;;;;5009627;28;20112;-66
2023/08/06 09:12:12;;;;;;;0.20;0.20;;;17.20;99.90;;;;;;5032932;28;20029;-66
2023/08/06 09:14:38;;;;;;;0.45;0.20;;;17.10;99.90;;;;;;5040698;28;20033;-65
2023/08/06 09:17:05;;;;;;;0.95;0.10;;;17.00;99.90;;;;;;5030710;28;20040;-66
2023/08/06 09:19:32;;;;;;;0.17;0.17;;;17.10;99.90;;;;;;5018667;28;20430;-66
2023/08/06 09:21:58;;;;;;;0.17;0.10;;;17.30;99.90;;;;;;5025780;28;20030;-66
2023/08/06 09:24:26;;;;;;;0.08;0.05;;;17.30;99.90;;;;;;5025437;28;20072;-68
2023/08/06 09:26:52;;;;;;;0.13;0.08;;;17.40;99.90;;;;;;5013229;28;20021;-67
2023/08/06 09:29:17;;;;;;;0.00;0.00;;;17.30;99.90;;;;;;5023694;28;20024;-66
2023/08/06 09:31:52;;;;;;;1.40;0.35;;;17.50;99.90;;;;;;5042963;28;20087;-67
2023/08/06 09:34:22;;;;;;;0.00;0.00;;;17.50;99.90;;;;;;5007972;28;20055;-67
2023/08/06 09:36:51;;;;;;;0.00;0.00;;;17.80;99.90;;;;;;5033658;28;20049;-67
2023/08/06 09:39:27;;;;;;;0.25;0.13;;;17.90;99.90;;;;;;5037247;28;20056;-67
2023/08/06 09:42:01;;;;;;;0.00;0.00;;;17.90;99.90;;;;;;5012764;28;20029;-67
2023/08/06 09:44:30;;;;;;;0.25;0.10;;;17.90;99.90;;;;;;5028337;28;20084;-67
2023/08/06 09:46:59;;;;;;;0.45;0.10;;;17.80;99.90;;;;;;5029240;28;20033;-67
2023/08/06 09:49:42;;;;;;;0.75;0.30;;;17.80;99.90;;;;;;5021817;28;20064;-67
2023/08/06 09:52:16;;;;;;;0.55;0.10;;;17.30;99.90;;;;;;5020749;28;20040;-67
2023/08/06 09:54:43;;;;;;;0.00;0.00;;;16.70;99.90;;;;;;5013459;28;20073;-66
2023/08/06 09:57:11;;;;;;;0.17;0.17;;;16.50;99.90;;;;;;5001551;28;20028;-67
2023/08/06 09:59:38;;;;;;;0.20;0.13;;;16.20;99.90;;;;;;5027285;28;20040;-68
2023/08/06 10:02:13;;;;;;;0.38;0.10;;;15.80;99.90;;;;;;5012882;28;20025;-67
2023/08/06 10:04:44;;;;;;;0.75;0.30;;;15.70;99.90;;;;;;5031675;28;20044;-68
2023/08/06 10:07:10;;;;;;;0.28;0.17;;;15.60;99.90;;;;;;5030177;28;20124;-68
2023/08/06 10:09:36;;;;;;;0.40;0.20;;;15.80;99.90;;;;;;5053834;28;20081;-67
2023/08/06 10:12:02;;;;;;;0.10;0.10;;;15.90;99.90;;;;;;5035546;28;20140;-67
2023/08/06 10:14:33;;;;;;;0.10;0.00;;;16.00;99.90;;;;;;5022255;28;20028;-68
2023/08/06 10:17:00;;;;;;;0.10;0.10;;;16.10;99.90;;;;;;5024069;28;20032;-66
2023/08/06 10:19:27;;;;;;;0.10;0.00;;;16.20;99.90;;;;;;5038981;28;20096;-67
2023/08/06 10:22:12;;;;;;;0.10;0.10;;;16.30;99.90;;;;;;5014945;28;20511;-68
2023/08/06 10:25:01;;;;;;;0.90;0.22;;;16.30;99.90;;;;;;5014533;28;20033;-68
2023/08/06 10:27:53;;;;;;;0.13;0.10;;;16.30;99.90;;;;;;5014833;28;20044;-67
2023/08/06 10:30:32;;;;;;;0.08;0.03;;;16.30;99.90;;;;;;4999128;28;20136;-67
2023/08/06 10:33:02;;;;;;;0.60;0.15;;;16.10;99.90;;;;;;5026387;23;20096;-67
2023/08/06 10:35:49;;;;;;;0.20;0.10;;;16.20;99.90;;;;;;5031590;28;20045;-67
2023/08/06 10:38:25;;;;;;;0.20;0.10;;;15.90;99.90;;;;;;5049098;28;20481;-67
2023/08/06 10:40:54;;;;;;;0.17;0.10;;;16.00;99.90;;;;;;5040334;28;20033;-67
2023/08/06 10:43:28;;;;;;;0.32;0.10;;;16.00;99.90;;;;;;5029737;28;20036;-66
2023/08/06 10:45:56;;;;;;;0.40;0.10;;;15.90;99.90;;;;;;5030503;28;20029;-67
2023/08/06 10:48:38;;;;;;;0.00;0.00;;;15.80;99.90;;;;;;5010965;28;20037;-66
2023/08/06 10:51:10;;;;;;;0.10;0.10;;;15.90;99.90;;;;;;5034713;28;20037;-65
2023/08/06 10:53:36;;;;;;;0.65;0.20;;;15.90;99.90;;;;;;5051809;28;20033;-65
2023/08/06 10:56:13;;;;;;;0.80;0.32;;;15.90;99.90;;;;;;5052551;28;20491;-66
2023/08/06 10:58:39;;;;;;;0.10;0.10;;;16.10;99.90;;;;;;5018863;28;20074;-67
2023/08/06 11:01:05;;;;;;;0.10;0.00;;;16.20;99.90;;;;;;5034698;28;20083;-66
2023/08/06 11:03:33;;;;;;;0.05;0.05;;;16.30;99.90;;;;;;5014304;28;20036;-66
2023/08/06 11:06:00;;;;;;;0.47;0.22;;;16.40;99.90;;;;;;5032588;28;20030;-67
2023/08/06 11:08:36;;;;;;;0.10;0.10;;;16.40;99.90;;;;;;5015450;28;20554;-67
2023/08/06 11:11:11;;;;;;;0.82;0.20;;;16.40;99.90;;;;;;5016437;28;20053;-67
2023/08/06 11:13:38;;;;;;;2.15;0.22;;;16.40;99.90;;;;;;5022370;28;20527;-67
2023/08/06 11:16:08;;;;;;;0.17;0.15;;;16.50;99.90;;;;;;5018474;28;20041;-66
2023/08/06 11:18:34;;;;;;;1.33;0.30;;;16.50;99.90;;;;;;5037656;28;20026;-66
2023/08/06 11:21:01;;;;;;;0.43;0.30;;;16.60;99.90;;;;;;5038948;28;20032;-65
2023/08/06 11:23:29;;;;;;;0.13;0.10;;;16.70;99.90;;;;;;4997571;28;20037;-66
2023/08/06 11:25:57;;;;;;;0.13;0.10;;;16.80;99.90;;;;;;4995678;28;20034;-65
2023/08/06 11:28:23;;;;;;;0.10;0.10;;;16.90;99.90;;;;;;5040086;28;20022;-66
2023/08/06 11:30:50;;;;;;;0.30;0.22;;;17.00;99.90;;;;;;5016633;28;20036;-66
2023/08/06 11:33:26;;;;;;;0.32;0.20;;;17.10;99.90;;;;;;5042415;28;20111;-66
2023/08/06 11:35:54;;;;;;;0.15;0.15;;;17.30;99.90;;;;;;5033696;28;20381;-68
2023/08/06 11:38:20;;;;;;;0.22;0.10;;;17.30;99.90;;;;;;5016917;28;20033;-66
2023/08/06 11:40:46;;;;;;;2.08;0.45;;;17.20;99.90;;;;;;4996498;28;20025;-65
2023/08/06 11:43:13;;;;;;;0.43;0.22;;;17.30;99.90;;;;;;4993917;28;20489;-65
2023/08/06 11:45:40;;;;;;;0.10;0.10;;;17.50;99.90;;;;;;4994243;28;20058;-64
2023/08/06 11:48:08;;;;;;;0.10;0.00;;;17.40;99.90;;;;;;4994329;28;20421;-64
2023/08/06 11:50:41;;;;;;;0.15;0.00;;;17.50;99.90;;;;;;4994827;28;20092;-64
2023/08/06 11:53:07;;;;;;;0.10;0.10;;;17.40;99.90;;;;;;4993858;28;20030;-64
2023/08/06 11:55:33;;;;;;;0.50;0.20;;;17.50;99.90;;;;;;5011806;28;20478;-64
2023/08/06 11:58:04;;;;;;;0.10;0.10;;;17.50;99.90;;;;;;5011690;28;20033;-64
2023/08/06 12:00:30;;;;;;;;;;;17.50;99.90;;;;;;5019775;28;20132;-64
2023/08/06 12:02:57;;;;;;;0.95;0.20;;;17.50;99.90;;;;;;5012981;28;20349;-66
2023/08/06 12:05:28;;;;;;;0.47;0.32;;;17.50;99.90;;;;;;5031363;28;20029;-66
2023/08/06 12:07:59;;;;;;;1.25;0.30;;;17.60;99.90;;;;;;5031642;28;20029;-65
2023/08/06 12:10:27;;;;;;;8.00;0.65;;;17.60;99.90;;;;;;5013943;28;20033;-65
2023/08/06 12:12:54;;;;;;;1.17;0.43;;;17.60;99.90;;;;;;5030610;28;20029;-65
2023/08/06 12:15:20;;;;;;;0.60;0.50;;;17.50;99.90;;;;;;5030982;28;20116;-66
2023/08/06 12:17:46;;;;;;;0.63;0.35;;;17.60;99.90;;;;;;5031332;28;20108;-66
2023/08/06 12:20:12;;;;;;;1.17;0.52;;;17.60;99.90;;;;;;4997305;28;20141;-67
2023/08/06 12:22:39;;;;;;;1.98;0.38;;;17.50;99.90;;;;;;5029169;28;20037;-67
2023/08/06 12:25:13;;;;;;;1.00;0.43;;;17.60;99.90;;;;;;5030490;28;20064;-68
2023/08/06 12:27:44;;;;;;;0.57;0.47;;;17.60;99.90;;;;;;5013793;28;20428;-64
2023/08/06 12:30:11;;;;;;;0.20;0.17;;;17.50;99.90;;;;;;5012938;28;20042;-65
2023/08/06 12:32:38;;;;;;;0.40;0.20;;;17.50;99.90;;;;;;5030223;28;20523;-65
2023/08/06 12:35:07;;;;;;;0.82;0.40;;;17.50;99.90;;;;;;5030999;28;20034;-65
2023/08/06 12:37:32;;;;;;;0.40;0.20;;;17.50;99.90;;;;;;5013276;28;20424;-65
2023/08/06 12:39:58;;;;;;;1.10;0.30;;;17.60;99.90;;;;;;5013350;28;20034;-65
2023/08/06 12:42:24;;;;;;;0.70;0.32;;;17.60;99.90;;;;;;5030136;28;20025;-65
2023/08/06 12:44:50;;;;;;;3.03;0.60;;;17.60;99.90;;;;;;5030590;28;20167;-65
2023/08/06 12:47:19;;;;;;;0.50;0.28;;;17.60;99.90;;;;;;5012907;28;20076;-65
2023/08/06 12:49:45;;;;;;;0.85;0.32;;;17.70;99.90;;;;;;5030563;28;20029;-66